sensor_id;sensor_type;location;lat;lon;timestamp;pressure;altitude;pressure_sealevel;temperature;humidity
51195;BME280;37259;49.972;19.850;2024-03-29T00:00:16;97363.3333333333;;;7.63;88.21
51195;BME280;37259;49.972;19.850;2024-03-29T00:01:16;97365;;;7.61;88.22
51195;BME280;37259;49.972;19.850;2024-03-29T00:02:16;97365;;;7.65;88.21
51195;BME280;37259;49.972;19.850;2024-03-29T00:03:16;97370;;;7.62;88.46
51195;BME280;37259;49.972;19.850;2024-03-29T00:04:16;97373.3333333333;;;7.65;88.47
51195;BME280;37259;49.972;19.850;2024-03-29T00:05:16;97375;;;7.67;88.4
51195;BME280;37259;49.972;19.850;2024-03-29T00:06:16;97376.6666666667;;;7.66;88.63
51195;BME280;37259;49.972;19.850;2024-03-29T00:07:16;97376.6666666667;;;7.66;88.55
51195;BME280;37259;49.972;19.850;2024-03-29T00:08:16;97376.6666666667;;;7.67;88.55
51195;BME280;37259;49.972;19.850;2024-03-29T00:09:16;97378.3333333333;;;7.64;88.66
51195;BME280;37259;49.972;19.850;2024-03-29T00:10:16;97381.6666666667;;;7.67;88.53
51195;BME280;37259;49.972;19.850;2024-03-29T00:11:16;97380;;;7.65;88.53
51195;BME280;37259;49.972;19.850;2024-03-29T00:12:17;97381.6666666667;;;7.61;88.59
51195;BME280;37259;49.972;19.850;2024-03-29T00:13:16;97383.3333333333;;;7.59;88.49
51195;BME280;37259;49.972;19.850;2024-03-29T00:14:16;97380;;;7.54;88.56
51195;BME280;37259;49.972;19.850;2024-03-29T00:15:16;97383.3333333333;;;7.54;88.52
51195;BME280;37259;49.972;19.850;2024-03-29T00:16:16;97383.3333333333;;;7.51;88.41
51195;BME280;37259;49.972;19.850;2024-03-29T00:17:16;97391.6666666667;;;7.51;88.19
51195;BME280;37259;49.972;19.850;2024-03-29T00:18:16;97390;;;7.54;88.17
51195;BME280;37259;49.972;19.850;2024-03-29T00:19:16;97395;;;7.58;88.1
51195;BME280;37259;49.972;19.850;2024-03-29T00:20:17;97396.6666666667;;;7.53;87.92
51195;BME280;37259;49.972;19.850;2024-03-29T00:21:16;97396.6666666667;;;7.56;87.94
51195;BME280;37259;49.972;19.850;2024-03-29T00:22:16;97400;;;7.48;87.86
51195;BME280;37259;49.972;19.850;2024-03-29T00:23:16;97398.3333333333;;;7.54;87.74
51195;BME280;37259;49.972;19.850;2024-03-29T00:24:16;97403.3333333333;;;7.52;87.59
51195;BME280;37259;49.972;19.850;2024-03-29T00:25:16;97406.6666666667;;;7.54;87.45
51195;BME280;37259;49.972;19.850;2024-03-29T00:26:17;97405;;;7.47;87.49
51195;BME280;37259;49.972;19.850;2024-03-29T00:27:16;97406.6666666667;;;7.52;87.4
51195;BME280;37259;49.972;19.850;2024-03-29T00:28:16;97406.6666666667;;;7.53;87.45
51195;BME280;37259;49.972;19.850;2024-03-29T00:29:16;97410;;;7.5;87.47
51195;BME280;37259;49.972;19.850;2024-03-29T00:30:16;97411.6666666667;;;7.55;87.34
51195;BME280;37259;49.972;19.850;2024-03-29T00:31:16;97415;;;7.51;87.24
51195;BME280;37259;49.972;19.850;2024-03-29T00:32:16;97421.6666666667;;;7.47;87.13
51195;BME280;37259;49.972;19.850;2024-03-29T00:33:17;97421.6666666667;;;7.43;87.17
51195;BME280;37259;49.972;19.850;2024-03-29T00:34:16;97425;;;7.47;87.21
51195;BME280;37259;49.972;19.850;2024-03-29T00:35:16;97426.6666666667;;;7.44;87.42
51195;BME280;37259;49.972;19.850;2024-03-29T00:36:16;97423.3333333333;;;7.47;87.28
51195;BME280;37259;49.972;19.850;2024-03-29T00:37:16;97425;;;7.42;87.25
51195;BME280;37259;49.972;19.850;2024-03-29T00:38:16;97426.6666666667;;;7.45;87.22
51195;BME280;37259;49.972;19.850;2024-03-29T00:39:16;97425;;;7.47;87.13
51195;BME280;37259;49.972;19.850;2024-03-29T00:40:16;97426.6666666667;;;7.45;87.11
51195;BME280;37259;49.972;19.850;2024-03-29T00:41:16;97426.6666666667;;;7.49;87.03
51195;BME280;37259;49.972;19.850;2024-03-29T00:42:16;97426.6666666667;;;7.46;86.94
51195;BME280;37259;49.972;19.850;2024-03-29T00:43:16;97431.6666666667;;;7.49;87
51195;BME280;37259;49.972;19.850;2024-03-29T00:44:16;97433.3333333333;;;7.51;87.04
51195;BME280;37259;49.972;19.850;2024-03-29T00:45:16;97435;;;7.48;86.97
51195;BME280;37259;49.972;19.850;2024-03-29T00:46:16;97436.6666666667;;;7.49;87.05
51195;BME280;37259;49.972;19.850;2024-03-29T00:47:16;97440;;;7.46;87.24
51195;BME280;37259;49.972;19.850;2024-03-29T00:48:17;97438.3333333333;;;7.49;87.05
51195;BME280;37259;49.972;19.850;2024-03-29T00:49:16;97445;;;7.46;86.97
51195;BME280;37259;49.972;19.850;2024-03-29T00:50:16;97445;;;7.44;87.13
51195;BME280;37259;49.972;19.850;2024-03-29T00:51:16;97446.6666666667;;;7.44;87.15
51195;BME280;37259;49.972;19.850;2024-03-29T00:52:16;97445;;;7.47;87.09
51195;BME280;37259;49.972;19.850;2024-03-29T00:53:17;97448.3333333333;;;7.5;87.23
51195;BME280;37259;49.972;19.850;2024-03-29T00:54:16;97448.3333333333;;;7.49;87.11
51195;BME280;37259;49.972;19.850;2024-03-29T00:55:17;97451.6666666667;;;7.51;87.1
51195;BME280;37259;49.972;19.850;2024-03-29T00:56:16;97453.3333333333;;;7.5;87.04
51195;BME280;37259;49.972;19.850;2024-03-29T00:57:16;97458.3333333333;;;7.51;86.99
51195;BME280;37259;49.972;19.850;2024-03-29T00:58:16;97468.3333333333;;;7.46;86.86
51195;BME280;37259;49.972;19.850;2024-03-29T00:59:16;97471.6666666667;;;7.46;86.97
51195;BME280;37259;49.972;19.850;2024-03-29T01:00:16;97471.6666666667;;;7.47;86.88
51195;BME280;37259;49.972;19.850;2024-03-29T01:01:16;97473.3333333333;;;7.45;86.84
51195;BME280;37259;49.972;19.850;2024-03-29T01:02:16;97476.6666666667;;;7.44;86.84
51195;BME280;37259;49.972;19.850;2024-03-29T01:03:16;97485;;;7.4;86.85
51195;BME280;37259;49.972;19.850;2024-03-29T01:04:16;97488.3333333333;;;7.37;86.96
51195;BME280;37259;49.972;19.850;2024-03-29T01:05:16;97493.3333333333;;;7.4;86.92
51195;BME280;37259;49.972;19.850;2024-03-29T01:06:16;97491.6666666667;;;7.4;86.81
51195;BME280;37259;49.972;19.850;2024-03-29T01:07:17;97496.6666666667;;;7.43;86.71
51195;BME280;37259;49.972;19.850;2024-03-29T01:08:16;97496.6666666667;;;7.41;86.59
51195;BME280;37259;49.972;19.850;2024-03-29T01:09:16;97496.6666666667;;;7.39;86.6
51195;BME280;37259;49.972;19.850;2024-03-29T01:10:17;97500;;;7.34;86.67
51195;BME280;37259;49.972;19.850;2024-03-29T01:11:16;97500;;;7.39;86.57
51195;BME280;37259;49.972;19.850;2024-03-29T01:12:16;97500;;;7.35;86.63
51195;BME280;37259;49.972;19.850;2024-03-29T01:13:16;97501.6666666667;;;7.37;86.59
51195;BME280;37259;49.972;19.850;2024-03-29T01:14:16;97501.6666666667;;;7.4;86.53
51195;BME280;37259;49.972;19.850;2024-03-29T01:15:16;97505;;;7.39;86.5
51195;BME280;37259;49.972;19.850;2024-03-29T01:16:16;97503.3333333333;;;7.37;86.69
51195;BME280;37259;49.972;19.850;2024-03-29T01:17:16;97503.3333333333;;;7.37;86.49
51195;BME280;37259;49.972;19.850;2024-03-29T01:18:16;97503.3333333333;;;7.35;86.51
51195;BME280;37259;49.972;19.850;2024-03-29T01:19:16;97503.3333333333;;;7.35;86.58
51195;BME280;37259;49.972;19.850;2024-03-29T01:20:16;97501.6666666667;;;7.35;86.51
51195;BME280;37259;49.972;19.850;2024-03-29T01:21:16;97500;;;7.36;86.4
51195;BME280;37259;49.972;19.850;2024-03-29T01:22:16;97500;;;7.34;86.46
51195;BME280;37259;49.972;19.850;2024-03-29T01:23:16;97508.3333333333;;;7.34;86.38
51195;BME280;37259;49.972;19.850;2024-03-29T01:24:17;97508.3333333333;;;7.34;86.21
51195;BME280;37259;49.972;19.850;2024-03-29T01:25:16;97506.6666666667;;;7.33;86.42
51195;BME280;37259;49.972;19.850;2024-03-29T01:26:16;97505;;;7.3;86.35
51195;BME280;37259;49.972;19.850;2024-03-29T01:27:16;97506.6666666667;;;7.31;86.28
51195;BME280;37259;49.972;19.850;2024-03-29T01:28:16;97505;;;7.31;86.29
51195;BME280;37259;49.972;19.850;2024-03-29T01:29:16;97508.3333333333;;;7.28;86.22
51195;BME280;37259;49.972;19.850;2024-03-29T01:30:16;97510;;;7.28;86.19
51195;BME280;37259;49.972;19.850;2024-03-29T01:31:16;97515;;;7.26;86.32
51195;BME280;37259;49.972;19.850;2024-03-29T01:32:16;97520;;;7.23;86.14
51195;BME280;37259;49.972;19.850;2024-03-29T01:33:16;97520;;;7.22;86.36
51195;BME280;37259;49.972;19.850;2024-03-29T01:34:16;97520;;;7.21;86.23
51195;BME280;37259;49.972;19.850;2024-03-29T01:35:16;97523.3333333333;;;7.19;86.24
51195;BME280;37259;49.972;19.850;2024-03-29T01:36:16;97521.6666666667;;;7.19;86.22
51195;BME280;37259;49.972;19.850;2024-03-29T01:37:16;97525;;;7.22;86.27
51195;BME280;37259;49.972;19.850;2024-03-29T01:38:17;97530;;;7.22;86.25
51195;BME280;37259;49.972;19.850;2024-03-29T01:39:16;97533.3333333333;;;7.15;86.34
51195;BME280;37259;49.972;19.850;2024-03-29T01:40:17;97536.6666666667;;;7.16;86.39
51195;BME280;37259;49.972;19.850;2024-03-29T01:41:16;97540;;;7.15;86.35
51195;BME280;37259;49.972;19.850;2024-03-29T01:42:16;97540;;;7.13;86.42
51195;BME280;37259;49.972;19.850;2024-03-29T01:43:16;97541.6666666667;;;7.12;86.48
51195;BME280;37259;49.972;19.850;2024-03-29T01:44:16;97540;;;7.07;86.58
51195;BME280;37259;49.972;19.850;2024-03-29T01:45:16;97545;;;7.07;86.51
51195;BME280;37259;49.972;19.850;2024-03-29T01:46:17;97548.3333333333;;;7.04;86.7
51195;BME280;37259;49.972;19.850;2024-03-29T01:47:16;97555;;;7.05;86.61
51195;BME280;37259;49.972;19.850;2024-03-29T01:48:17;97556.6666666667;;;7.05;86.46
51195;BME280;37259;49.972;19.850;2024-03-29T01:49:16;97556.6666666667;;;7.04;86.36
51195;BME280;37259;49.972;19.850;2024-03-29T01:50:16;97558.3333333333;;;7.01;86.29
51195;BME280;37259;49.972;19.850;2024-03-29T01:51:17;97560;;;7.01;86.36
51195;BME280;37259;49.972;19.850;2024-03-29T01:52:16;97566.6666666667;;;6.99;86.32
51195;BME280;37259;49.972;19.850;2024-03-29T01:53:17;97570;;;6.95;86.23
51195;BME280;37259;49.972;19.850;2024-03-29T01:54:16;97573.3333333333;;;6.92;86.27
51195;BME280;37259;49.972;19.850;2024-03-29T01:55:16;97578.3333333333;;;6.88;86.23
51195;BME280;37259;49.972;19.850;2024-03-29T01:56:16;97578.3333333333;;;6.83;86.2
51195;BME280;37259;49.972;19.850;2024-03-29T01:57:16;97580;;;6.85;86.27
51195;BME280;37259;49.972;19.850;2024-03-29T01:58:16;97585;;;6.82;86.28
51195;BME280;37259;49.972;19.850;2024-03-29T01:59:17;97583.3333333333;;;6.78;86.52
51195;BME280;37259;49.972;19.850;2024-03-29T02:00:17;97590;;;6.75;86.59
51195;BME280;37259;49.972;19.850;2024-03-29T02:01:16;97590;;;6.75;86.55
51195;BME280;37259;49.972;19.850;2024-03-29T02:02:17;97593.3333333333;;;6.72;86.47
51195;BME280;37259;49.972;19.850;2024-03-29T02:03:16;97600;;;6.69;86.48
51195;BME280;37259;49.972;19.850;2024-03-29T02:04:16;97603.3333333333;;;6.7;86.85
51195;BME280;37259;49.972;19.850;2024-03-29T02:05:17;97605;;;6.68;86.7
51195;BME280;37259;49.972;19.850;2024-03-29T02:06:16;97611.6666666667;;;6.62;87.01
51195;BME280;37259;49.972;19.850;2024-03-29T02:07:16;97620;;;6.61;86.96
51195;BME280;37259;49.972;19.850;2024-03-29T02:08:17;97616.6666666667;;;6.61;86.94
51195;BME280;37259;49.972;19.850;2024-03-29T02:09:16;97621.6666666667;;;6.59;86.81
51195;BME280;37259;49.972;19.850;2024-03-29T02:10:16;97621.6666666667;;;6.56;86.78
51195;BME280;37259;49.972;19.850;2024-03-29T02:11:16;97630;;;6.53;86.8
51195;BME280;37259;49.972;19.850;2024-03-29T02:12:16;97631.6666666667;;;6.51;86.75
51195;BME280;37259;49.972;19.850;2024-03-29T02:13:17;97636.6666666667;;;6.42;87.56
51195;BME280;37259;49.972;19.850;2024-03-29T02:14:16;97640;;;6.44;87.27
51195;BME280;37259;49.972;19.850;2024-03-29T02:15:16;97640;;;6.45;87.22
51195;BME280;37259;49.972;19.850;2024-03-29T02:16:16;97641.6666666667;;;6.43;87.45
51195;BME280;37259;49.972;19.850;2024-03-29T02:17:16;97641.6666666667;;;6.41;87.23
51195;BME280;37259;49.972;19.850;2024-03-29T02:18:16;97645;;;6.38;87.24
51195;BME280;37259;49.972;19.850;2024-03-29T02:19:16;97650;;;6.38;87.16
51195;BME280;37259;49.972;19.850;2024-03-29T02:20:16;97653.3333333333;;;6.39;87.03
51195;BME280;37259;49.972;19.850;2024-03-29T02:21:16;97656.6666666667;;;6.38;87.03
51195;BME280;37259;49.972;19.850;2024-03-29T02:22:16;97660;;;6.36;86.98
51195;BME280;37259;49.972;19.850;2024-03-29T02:23:17;97663.3333333333;;;6.37;86.95
51195;BME280;37259;49.972;19.850;2024-03-29T02:24:16;97665;;;6.35;86.82
51195;BME280;37259;49.972;19.850;2024-03-29T02:25:16;97666.6666666667;;;6.35;86.81
51195;BME280;37259;49.972;19.850;2024-03-29T02:26:17;97673.3333333333;;;6.3;86.88
51195;BME280;37259;49.972;19.850;2024-03-29T02:27:16;97670;;;6.28;86.8
51195;BME280;37259;49.972;19.850;2024-03-29T02:28:17;97671.6666666667;;;6.28;86.85
51195;BME280;37259;49.972;19.850;2024-03-29T02:29:17;97676.6666666667;;;6.27;86.44
51195;BME280;37259;49.972;19.850;2024-03-29T02:30:16;97680;;;6.29;86.22
51195;BME280;37259;49.972;19.850;2024-03-29T02:31:17;97676.6666666667;;;6.28;86.06
51195;BME280;37259;49.972;19.850;2024-03-29T02:32:16;97683.3333333333;;;6.3;86.05
51195;BME280;37259;49.972;19.850;2024-03-29T02:33:16;97683.3333333333;;;6.31;85.86
51195;BME280;37259;49.972;19.850;2024-03-29T02:34:16;97685;;;6.3;85.81
51195;BME280;37259;49.972;19.850;2024-03-29T02:35:17;97686.6666666667;;;6.3;85.65
51195;BME280;37259;49.972;19.850;2024-03-29T02:36:16;97690;;;6.33;85.52
51195;BME280;37259;49.972;19.850;2024-03-29T02:37:16;97696.6666666667;;;6.34;85.44
51195;BME280;37259;49.972;19.850;2024-03-29T02:38:17;97700;;;6.31;85.04
51195;BME280;37259;49.972;19.850;2024-03-29T02:39:16;97703.3333333333;;;6.31;84.96
51195;BME280;37259;49.972;19.850;2024-03-29T02:40:17;97708.3333333333;;;6.34;84.41
51195;BME280;37259;49.972;19.850;2024-03-29T02:41:16;97708.3333333333;;;6.34;84.59
51195;BME280;37259;49.972;19.850;2024-03-29T02:42:16;97711.6666666667;;;6.35;84.66
51195;BME280;37259;49.972;19.850;2024-03-29T02:43:16;97711.6666666667;;;6.35;84.58
51195;BME280;37259;49.972;19.850;2024-03-29T02:44:16;97705;;;6.34;84.41
51195;BME280;37259;49.972;19.850;2024-03-29T02:45:16;97703.3333333333;;;6.38;84.2
51195;BME280;37259;49.972;19.850;2024-03-29T02:46:16;97703.3333333333;;;6.4;83.89
51195;BME280;37259;49.972;19.850;2024-03-29T02:47:16;97701.6666666667;;;6.4;83.86
51195;BME280;37259;49.972;19.850;2024-03-29T02:48:16;97701.6666666667;;;6.43;83.65
51195;BME280;37259;49.972;19.850;2024-03-29T02:49:16;97700;;;6.43;83.58
51195;BME280;37259;49.972;19.850;2024-03-29T02:50:17;97700;;;6.4;83.43
51195;BME280;37259;49.972;19.850;2024-03-29T02:51:17;97698.3333333333;;;6.4;83.42
51195;BME280;37259;49.972;19.850;2024-03-29T02:52:16;97700;;;6.42;83.32
51195;BME280;37259;49.972;19.850;2024-03-29T02:53:16;97703.3333333333;;;6.44;83.19
51195;BME280;37259;49.972;19.850;2024-03-29T02:54:17;97705;;;6.42;83.14
51195;BME280;37259;49.972;19.850;2024-03-29T02:55:16;97708.3333333333;;;6.43;82.94
51195;BME280;37259;49.972;19.850;2024-03-29T02:56:17;97711.6666666667;;;6.4;82.99
51195;BME280;37259;49.972;19.850;2024-03-29T02:57:17;97710;;;6.42;82.91
51195;BME280;37259;49.972;19.850;2024-03-29T02:58:17;97713.3333333333;;;6.42;82.97
51195;BME280;37259;49.972;19.850;2024-03-29T02:59:16;97711.6666666667;;;6.39;83.01
51195;BME280;37259;49.972;19.850;2024-03-29T03:00:17;97718.3333333333;;;6.4;83.07
51195;BME280;37259;49.972;19.850;2024-03-29T03:01:16;97720;;;6.41;82.99
51195;BME280;37259;49.972;19.850;2024-03-29T03:02:16;97720;;;6.39;82.78
51195;BME280;37259;49.972;19.850;2024-03-29T03:03:17;97725;;;6.4;82.77
51195;BME280;37259;49.972;19.850;2024-03-29T03:04:16;97728.3333333333;;;6.42;82.59
51195;BME280;37259;49.972;19.850;2024-03-29T03:05:16;97730;;;6.39;82.48
51195;BME280;37259;49.972;19.850;2024-03-29T03:06:17;97735;;;6.38;82.59
51195;BME280;37259;49.972;19.850;2024-03-29T03:07:17;97741.6666666667;;;6.4;82.58
51195;BME280;37259;49.972;19.850;2024-03-29T03:08:16;97741.6666666667;;;6.41;82.35
51195;BME280;37259;49.972;19.850;2024-03-29T03:09:17;97741.6666666667;;;6.41;82.35
51195;BME280;37259;49.972;19.850;2024-03-29T03:10:17;97745;;;6.38;82.37
51195;BME280;37259;49.972;19.850;2024-03-29T03:11:17;97745;;;6.38;82.35
51195;BME280;37259;49.972;19.850;2024-03-29T03:12:17;97751.6666666667;;;6.4;82.23
51195;BME280;37259;49.972;19.850;2024-03-29T03:13:17;97751.6666666667;;;6.35;82.29
51195;BME280;37259;49.972;19.850;2024-03-29T03:14:16;97753.3333333333;;;6.39;82.25
51195;BME280;37259;49.972;19.850;2024-03-29T03:15:17;97758.3333333333;;;6.37;82.21
51195;BME280;37259;49.972;19.850;2024-03-29T03:16:17;97761.6666666667;;;6.33;82.25
51195;BME280;37259;49.972;19.850;2024-03-29T03:17:16;97760;;;6.36;82.24
51195;BME280;37259;49.972;19.850;2024-03-29T03:18:17;97763.3333333333;;;6.34;82.17
51195;BME280;37259;49.972;19.850;2024-03-29T03:19:16;97763.3333333333;;;6.33;82.09
51195;BME280;37259;49.972;19.850;2024-03-29T03:20:16;97770;;;6.29;82.07
51195;BME280;37259;49.972;19.850;2024-03-29T03:21:16;97770;;;6.3;82.14
51195;BME280;37259;49.972;19.850;2024-03-29T03:22:16;97771.6666666667;;;6.28;82.28
51195;BME280;37259;49.972;19.850;2024-03-29T03:23:17;97773.3333333333;;;6.29;82.37
51195;BME280;37259;49.972;19.850;2024-03-29T03:24:17;97775;;;6.28;82.25
51195;BME280;37259;49.972;19.850;2024-03-29T03:25:17;97780;;;6.26;82.12
51195;BME280;37259;49.972;19.850;2024-03-29T03:26:17;97781.6666666667;;;6.26;82.28
51195;BME280;37259;49.972;19.850;2024-03-29T03:27:17;97788.3333333333;;;6.26;82.13
51195;BME280;37259;49.972;19.850;2024-03-29T03:28:17;97785;;;6.25;82.21
51195;BME280;37259;49.972;19.850;2024-03-29T03:29:16;97785;;;6.22;82.11
51195;BME280;37259;49.972;19.850;2024-03-29T03:30:17;97783.3333333333;;;6.22;82.07
51195;BME280;37259;49.972;19.850;2024-03-29T03:31:17;97791.6666666667;;;6.18;82.15
51195;BME280;37259;49.972;19.850;2024-03-29T03:32:17;97786.6666666667;;;6.16;82.29
51195;BME280;37259;49.972;19.850;2024-03-29T03:33:17;97791.6666666667;;;6.16;82.21
51195;BME280;37259;49.972;19.850;2024-03-29T03:34:17;97790;;;6.17;82.2
51195;BME280;37259;49.972;19.850;2024-03-29T03:35:16;97781.6666666667;;;6.16;82.12
51195;BME280;37259;49.972;19.850;2024-03-29T03:36:17;97783.3333333333;;;6.15;81.98
51195;BME280;37259;49.972;19.850;2024-03-29T03:37:16;97781.6666666667;;;6.16;81.97
51195;BME280;37259;49.972;19.850;2024-03-29T03:38:17;97781.6666666667;;;6.12;81.86
51195;BME280;37259;49.972;19.850;2024-03-29T03:39:16;97780;;;6.1;81.71
51195;BME280;37259;49.972;19.850;2024-03-29T03:40:17;97781.6666666667;;;6.04;81.69
51195;BME280;37259;49.972;19.850;2024-03-29T03:41:17;97780;;;6.02;81.77
51195;BME280;37259;49.972;19.850;2024-03-29T03:42:17;97776.6666666667;;;6.02;81.73
51195;BME280;37259;49.972;19.850;2024-03-29T03:43:17;97778.3333333333;;;5.97;81.71
51195;BME280;37259;49.972;19.850;2024-03-29T03:44:17;97776.6666666667;;;5.93;81.79
51195;BME280;37259;49.972;19.850;2024-03-29T03:45:17;97775;;;5.88;81.62
51195;BME280;37259;49.972;19.850;2024-03-29T03:46:17;97771.6666666667;;;5.84;81.71
51195;BME280;37259;49.972;19.850;2024-03-29T03:47:17;97775;;;5.82;81.76
51195;BME280;37259;49.972;19.850;2024-03-29T03:48:17;97778.3333333333;;;5.79;81.8
51195;BME280;37259;49.972;19.850;2024-03-29T03:49:17;97780;;;5.76;82.15
51195;BME280;37259;49.972;19.850;2024-03-29T03:50:16;97780;;;5.74;82.06
51195;BME280;37259;49.972;19.850;2024-03-29T03:51:17;97781.6666666667;;;5.67;82.3
51195;BME280;37259;49.972;19.850;2024-03-29T03:52:17;97785;;;5.64;82.73
51195;BME280;37259;49.972;19.850;2024-03-29T03:53:17;97786.6666666667;;;5.62;82.54
51195;BME280;37259;49.972;19.850;2024-03-29T03:54:17;97790;;;5.61;82.47
51195;BME280;37259;49.972;19.850;2024-03-29T03:55:16;97788.3333333333;;;5.57;82.88
51195;BME280;37259;49.972;19.850;2024-03-29T03:56:16;97788.3333333333;;;5.56;83.04
51195;BME280;37259;49.972;19.850;2024-03-29T03:57:16;97791.6666666667;;;5.51;83.92
51195;BME280;37259;49.972;19.850;2024-03-29T03:58:16;97790;;;5.53;83.93
51195;BME280;37259;49.972;19.850;2024-03-29T03:59:17;97790;;;5.53;84.11
51195;BME280;37259;49.972;19.850;2024-03-29T04:00:17;97790;;;5.48;84.13
51195;BME280;37259;49.972;19.850;2024-03-29T04:01:17;97790;;;5.51;83.94
51195;BME280;37259;49.972;19.850;2024-03-29T04:02:17;97790;;;5.48;83.85
51195;BME280;37259;49.972;19.850;2024-03-29T04:03:17;97793.3333333333;;;5.5;83.89
51195;BME280;37259;49.972;19.850;2024-03-29T04:04:16;97798.3333333333;;;5.47;84.29
51195;BME280;37259;49.972;19.850;2024-03-29T04:05:17;97798.3333333333;;;5.49;84.07
51195;BME280;37259;49.972;19.850;2024-03-29T04:06:17;97803.3333333333;;;5.47;83.94
51195;BME280;37259;49.972;19.850;2024-03-29T04:07:16;97803.3333333333;;;5.48;84.1
51195;BME280;37259;49.972;19.850;2024-03-29T04:08:17;97808.3333333333;;;5.46;83.96
51195;BME280;37259;49.972;19.850;2024-03-29T04:09:16;97810;;;5.43;83.87
51195;BME280;37259;49.972;19.850;2024-03-29T04:10:17;97811.6666666667;;;5.44;83.94
51195;BME280;37259;49.972;19.850;2024-03-29T04:11:17;97813.3333333333;;;5.41;84.1
51195;BME280;37259;49.972;19.850;2024-03-29T04:12:17;97816.6666666667;;;5.38;83.9
51195;BME280;37259;49.972;19.850;2024-03-29T04:13:18;97813.3333333333;;;5.42;83.91
51195;BME280;37259;49.972;19.850;2024-03-29T04:14:17;97815;;;5.4;84.05
51195;BME280;37259;49.972;19.850;2024-03-29T04:15:17;97815;;;5.41;84.01
51195;BME280;37259;49.972;19.850;2024-03-29T04:16:17;97811.6666666667;;;5.38;84.2
51195;BME280;37259;49.972;19.850;2024-03-29T04:17:16;97820;;;5.39;84.17
51195;BME280;37259;49.972;19.850;2024-03-29T04:18:17;97816.6666666667;;;5.39;84.03
51195;BME280;37259;49.972;19.850;2024-03-29T04:19:16;97811.6666666667;;;5.39;83.97
51195;BME280;37259;49.972;19.850;2024-03-29T04:20:17;97815;;;5.39;83.88
51195;BME280;37259;49.972;19.850;2024-03-29T04:21:17;97815;;;5.38;84.08
51195;BME280;37259;49.972;19.850;2024-03-29T04:22:17;97816.6666666667;;;5.39;83.87
51195;BME280;37259;49.972;19.850;2024-03-29T04:23:17;97816.6666666667;;;5.37;83.84
51195;BME280;37259;49.972;19.850;2024-03-29T04:24:17;97815;;;5.37;83.92
51195;BME280;37259;49.972;19.850;2024-03-29T04:25:17;97815;;;5.36;83.83
51195;BME280;37259;49.972;19.850;2024-03-29T04:26:16;97816.6666666667;;;5.36;84.08
51195;BME280;37259;49.972;19.850;2024-03-29T04:27:17;97818.3333333333;;;5.39;84.05
51195;BME280;37259;49.972;19.850;2024-03-29T04:28:17;97820;;;5.36;84.25
51195;BME280;37259;49.972;19.850;2024-03-29T04:29:16;97823.3333333333;;;5.4;84.13
51195;BME280;37259;49.972;19.850;2024-03-29T04:30:17;97830;;;5.41;84.31
51195;BME280;37259;49.972;19.850;2024-03-29T04:31:17;97830;;;5.44;83.97
51195;BME280;37259;49.972;19.850;2024-03-29T04:32:16;97831.6666666667;;;5.43;83.92
51195;BME280;37259;49.972;19.850;2024-03-29T04:33:17;97831.6666666667;;;5.44;84.01
51195;BME280;37259;49.972;19.850;2024-03-29T04:34:17;97831.6666666667;;;5.45;84
51195;BME280;37259;49.972;19.850;2024-03-29T04:35:17;97831.6666666667;;;5.41;83.98
51195;BME280;37259;49.972;19.850;2024-03-29T04:36:17;97830;;;5.42;84.11
51195;BME280;37259;49.972;19.850;2024-03-29T04:37:17;97828.3333333333;;;5.42;84.09
51195;BME280;37259;49.972;19.850;2024-03-29T04:38:17;97823.3333333333;;;5.41;84.05
51195;BME280;37259;49.972;19.850;2024-03-29T04:39:16;97826.6666666667;;;5.38;84.09
51195;BME280;37259;49.972;19.850;2024-03-29T04:40:16;97825;;;5.38;84.06
51195;BME280;37259;49.972;19.850;2024-03-29T04:41:17;97825;;;5.41;84.19
51195;BME280;37259;49.972;19.850;2024-03-29T04:42:17;97826.6666666667;;;5.43;84.27
51195;BME280;37259;49.972;19.850;2024-03-29T04:43:17;97826.6666666667;;;5.45;84.17
51195;BME280;37259;49.972;19.850;2024-03-29T04:44:22;97828.3333333333;;;5.48;84.11
51195;BME280;37259;49.972;19.850;2024-03-29T04:45:17;97833.3333333333;;;5.47;84.12
51195;BME280;37259;49.972;19.850;2024-03-29T04:46:17;97833.3333333333;;;5.49;84.01
51195;BME280;37259;49.972;19.850;2024-03-29T04:47:17;97833.3333333333;;;5.5;83.88
51195;BME280;37259;49.972;19.850;2024-03-29T04:48:17;97838.3333333333;;;5.5;84.02
51195;BME280;37259;49.972;19.850;2024-03-29T04:49:18;97841.6666666667;;;5.5;84.03
51195;BME280;37259;49.972;19.850;2024-03-29T04:50:17;97845;;;5.5;83.9
51195;BME280;37259;49.972;19.850;2024-03-29T04:51:17;97850;;;5.51;83.93
51195;BME280;37259;49.972;19.850;2024-03-29T04:52:17;97850;;;5.52;83.9
51195;BME280;37259;49.972;19.850;2024-03-29T04:53:17;97846.6666666667;;;5.57;83.77
51195;BME280;37259;49.972;19.850;2024-03-29T04:54:17;97843.3333333333;;;5.55;83.81
51195;BME280;37259;49.972;19.850;2024-03-29T04:55:17;97843.3333333333;;;5.56;83.87
51195;BME280;37259;49.972;19.850;2024-03-29T04:56:17;97846.6666666667;;;5.56;83.95
51195;BME280;37259;49.972;19.850;2024-03-29T04:57:17;97845;;;5.59;83.86
51195;BME280;37259;49.972;19.850;2024-03-29T04:58:16;97845;;;5.63;83.76
51195;BME280;37259;49.972;19.850;2024-03-29T04:59:16;97841.6666666667;;;5.66;83.73
51195;BME280;37259;49.972;19.850;2024-03-29T05:00:17;97845;;;5.66;83.64
51195;BME280;37259;49.972;19.850;2024-03-29T05:01:17;97848.3333333333;;;5.68;83.58
51195;BME280;37259;49.972;19.850;2024-03-29T05:02:16;97851.6666666667;;;5.71;83.52